createdAt,value
2023-01-13T00:00:15.607Z,5.88
2023-01-13T00:01:47.311Z,6.07
2023-01-13T00:03:19.032Z,5.80
2023-01-13T00:04:50.764Z,5.73
2023-01-13T00:06:25.833Z,5.66
2023-01-13T00:07:57.564Z,5.67
2023-01-13T00:09:29.285Z,5.83
2023-01-13T00:11:01.042Z,5.76
2023-01-13T00:12:34.191Z,5.61
2023-01-13T00:14:05.964Z,5.69
2023-01-13T00:15:37.690Z,5.66
2023-01-13T00:17:09.426Z,5.79
2023-01-13T00:18:41.159Z,5.97
2023-01-13T00:20:12.879Z,5.84
2023-01-13T00:21:44.587Z,5.59
2023-01-13T00:23:16.314Z,5.60
2023-01-13T00:24:48.047Z,5.68
2023-01-13T00:26:20.737Z,5.57
2023-01-13T00:27:53.923Z,5.58
2023-01-13T00:29:25.683Z,5.62
2023-01-13T00:30:58.664Z,5.72
2023-01-13T00:32:30.459Z,5.56
2023-01-13T00:34:02.435Z,5.31
2023-01-13T00:35:34.167Z,5.40
2023-01-13T00:37:05.876Z,5.45
2023-01-13T00:38:38.992Z,5.38
2023-01-13T00:40:12.068Z,5.47
2023-01-13T00:42:02.610Z,5.65
2023-01-13T00:43:36.122Z,5.74
2023-01-13T00:45:08.418Z,6.15
2023-01-13T00:46:40.130Z,5.86
2023-01-13T00:48:11.907Z,5.78
2023-01-13T00:49:43.612Z,5.73
2023-01-13T00:51:17.073Z,5.87
2023-01-13T00:52:48.816Z,5.80
2023-01-13T00:54:20.531Z,5.67
2023-01-13T00:55:59.065Z,5.59
2023-01-13T00:57:30.789Z,5.62
2023-01-13T00:59:04.227Z,5.73
2023-01-13T01:00:36.226Z,5.79
2023-01-13T01:02:08.067Z,5.73
2023-01-13T01:03:39.935Z,5.57
2023-01-13T01:05:11.647Z,5.62
2023-01-13T01:06:43.363Z,5.75
2023-01-13T01:08:15.084Z,5.70
2023-01-13T01:09:46.783Z,5.58
2023-01-13T01:11:19.386Z,5.56
2023-01-13T01:12:51.135Z,5.57
2023-01-13T01:14:24.236Z,5.46
2023-01-13T01:15:56.335Z,5.44
2023-01-13T01:17:28.240Z,5.50
2023-01-13T01:19:00.225Z,5.51
2023-01-13T01:20:31.915Z,5.51
2023-01-13T01:22:03.671Z,5.72
2023-01-13T01:23:35.659Z,5.70
2023-01-13T01:25:08.446Z,5.83
2023-01-13T01:26:41.998Z,5.81
2023-01-13T01:28:13.767Z,5.72
2023-01-13T01:29:46.839Z,5.81
2023-01-13T01:31:19.546Z,5.68
2023-01-13T01:32:51.276Z,5.79
2023-01-13T01:34:23.004Z,5.84
2023-01-13T01:35:54.896Z,5.68
2023-01-13T01:37:26.586Z,5.97
2023-01-13T01:38:58.687Z,5.91
2023-01-13T01:40:30.425Z,5.81
2023-01-13T01:42:20.531Z,5.65
2023-01-13T01:44:08.264Z,5.49
2023-01-13T01:45:41.419Z,5.48
2023-01-13T01:47:14.080Z,5.34
2023-01-13T01:48:45.795Z,5.42
2023-01-13T01:50:17.679Z,5.35
2023-01-13T01:51:52.375Z,5.46
2023-01-13T01:53:25.168Z,5.67
2023-01-13T01:54:58.722Z,5.65
2023-01-13T01:56:30.575Z,5.75
2023-01-13T01:58:04.701Z,5.83
2023-01-13T01:59:36.443Z,5.84
2023-01-13T02:01:09.711Z,6.24
2023-01-13T02:02:41.772Z,6.24
2023-01-13T02:04:15.389Z,6.14
2023-01-13T02:05:47.072Z,6.09
2023-01-13T02:07:18.947Z,6.11
2023-01-13T02:08:50.640Z,6.04
2023-01-13T02:10:23.579Z,6.14
2023-01-13T02:12:13.853Z,6.08
2023-01-13T02:13:45.543Z,5.97
2023-01-13T02:15:18.468Z,6.02
2023-01-13T02:16:56.009Z,6.06
2023-01-13T02:18:36.586Z,6.18
2023-01-13T02:20:29.229Z,6.59
2023-01-13T02:22:11.669Z,6.59
2023-01-13T02:24:36.949Z,6.33
2023-01-13T02:26:19.759Z,6.38
2023-01-13T02:28:00.605Z,6.42
2023-01-13T02:30:01.809Z,6.45
2023-01-13T02:31:42.523Z,6.18
2023-01-13T02:33:20.066Z,6.32
2023-01-13T02:34:55.146Z,6.18
2023-01-13T02:36:31.104Z,6.28
2023-01-13T02:38:02.817Z,6.30
2023-01-13T02:39:36.031Z,6.33
2023-01-13T02:41:27.762Z,6.37
2023-01-13T02:43:20.225Z,6.20
2023-01-13T02:44:55.498Z,6.24
2023-01-13T02:46:28.414Z,6.17
2023-01-13T02:48:00.145Z,6.28
2023-01-13T02:49:34.437Z,6.49
2023-01-13T02:51:07.538Z,6.58
2023-01-13T02:52:40.931Z,6.54
2023-01-13T02:54:13.897Z,6.79
2023-01-13T02:55:46.970Z,6.70
2023-01-13T02:57:18.707Z,6.44
2023-01-13T02:58:50.404Z,6.61
2023-01-13T03:00:23.594Z,6.51
2023-01-13T03:01:56.212Z,6.43
2023-01-13T03:03:27.930Z,6.88
2023-01-13T03:05:00.005Z,6.77
2023-01-13T03:06:36.928Z,6.77
2023-01-13T03:08:18.928Z,6.98
2023-01-13T03:09:53.947Z,6.75
2023-01-13T03:11:27.098Z,6.62
2023-01-13T03:13:02.577Z,6.60
2023-01-13T03:14:36.124Z,6.83
2023-01-13T03:16:13.153Z,6.62
2023-01-13T03:17:46.623Z,6.68
2023-01-13T03:19:25.339Z,6.61
2023-01-13T03:21:01.374Z,6.58
2023-01-13T03:22:34.284Z,6.79
2023-01-13T03:24:07.429Z,6.73
2023-01-13T03:25:40.641Z,6.61
2023-01-13T03:27:14.620Z,6.51
2023-01-13T03:28:48.428Z,6.66
2023-01-13T03:30:20.929Z,6.59
2023-01-13T03:31:56.492Z,6.76
2023-01-13T03:33:29.457Z,6.74
2023-01-13T03:35:04.294Z,6.64
2023-01-13T03:36:36.231Z,6.82
2023-01-13T03:38:10.222Z,6.83
2023-01-13T03:39:43.917Z,6.83
2023-01-13T03:41:17.496Z,6.97
2023-01-13T03:43:09.496Z,7.03
2023-01-13T03:44:42.276Z,6.98
2023-01-13T03:46:15.172Z,7.05
2023-01-13T03:47:49.467Z,6.90
2023-01-13T03:49:22.961Z,6.80
2023-01-13T03:50:56.374Z,6.89
2023-01-13T03:52:29.124Z,6.90
2023-01-13T03:54:01.900Z,6.91
2023-01-13T03:55:34.554Z,6.98
2023-01-13T03:57:07.782Z,6.97
2023-01-13T03:58:41.333Z,6.94
2023-01-13T04:00:13.517Z,6.89
2023-01-13T04:01:47.153Z,7.01
2023-01-13T04:03:23.439Z,6.99
2023-01-13T04:04:56.521Z,7.17
2023-01-13T04:06:31.784Z,6.99
2023-01-13T04:08:07.048Z,6.96
2023-01-13T04:09:41.654Z,6.92
2023-01-13T04:11:15.839Z,6.93
2023-01-13T04:13:01.479Z,6.92
2023-01-13T04:14:33.108Z,7.04
2023-01-13T04:16:05.662Z,6.97
2023-01-13T04:17:37.289Z,6.86
2023-01-13T04:19:10.270Z,7.00
2023-01-13T04:20:42.294Z,7.11
2023-01-13T04:22:13.979Z,6.96
2023-01-13T04:23:45.829Z,7.07
2023-01-13T04:25:17.404Z,7.02
2023-01-13T04:26:48.943Z,6.93
2023-01-13T04:28:20.561Z,6.98
2023-01-13T04:29:52.232Z,7.02
2023-01-13T04:31:23.950Z,6.98
2023-01-13T04:32:55.543Z,6.84
2023-01-13T04:34:28.606Z,6.82
2023-01-13T04:36:00.217Z,6.90
2023-01-13T04:37:31.799Z,6.80
2023-01-13T04:39:03.764Z,6.86
2023-01-13T04:40:35.420Z,6.89
2023-01-13T04:42:07.015Z,6.93
2023-01-13T04:43:38.594Z,6.86
2023-01-13T04:45:10.901Z,6.83
2023-01-13T04:46:42.568Z,6.79
2023-01-13T04:48:14.197Z,6.85
2023-01-13T04:49:47.128Z,6.80
2023-01-13T04:51:18.688Z,6.77
2023-01-13T04:52:50.413Z,6.75
2023-01-13T04:54:22.058Z,6.81
2023-01-13T04:55:53.680Z,6.76
2023-01-13T04:57:25.978Z,6.80
2023-01-13T04:58:57.564Z,6.77
2023-01-13T05:00:29.130Z,6.78
2023-01-13T05:02:00.789Z,6.80
2023-01-13T05:03:32.443Z,6.81
2023-01-13T05:05:05.939Z,6.79
2023-01-13T05:06:37.552Z,6.75
2023-01-13T05:08:09.179Z,6.73
2023-01-13T05:09:40.777Z,6.78
2023-01-13T05:11:31.096Z,6.80
2023-01-13T05:13:21.391Z,6.82
2023-01-13T05:15:11.877Z,6.74
2023-01-13T05:17:01.748Z,6.85
2023-01-13T05:18:33.366Z,6.84
2023-01-13T05:20:07.221Z,6.78
2023-01-13T05:22:07.943Z,6.83
2023-01-13T05:23:57.737Z,6.78
2023-01-13T05:25:29.292Z,6.79
2023-01-13T05:27:00.860Z,6.78
2023-01-13T05:28:32.488Z,6.82
2023-01-13T05:30:04.881Z,6.88
2023-01-13T05:31:36.451Z,6.79
2023-01-13T05:33:08.176Z,6.77
2023-01-13T05:34:39.790Z,6.72
2023-01-13T05:36:12.780Z,6.78
2023-01-13T05:37:44.668Z,6.82
2023-01-13T05:39:16.248Z,6.77
2023-01-13T05:41:06.627Z,6.82
2023-01-13T05:42:56.868Z,6.79
2023-01-13T05:44:28.682Z,6.87
2023-01-13T05:46:01.285Z,6.88
2023-01-13T05:47:32.926Z,6.79
2023-01-13T05:49:05.400Z,6.92
2023-01-13T05:50:36.964Z,6.86
2023-01-13T05:52:09.919Z,6.94
2023-01-13T05:53:41.523Z,6.92
2023-01-13T05:55:13.094Z,6.90
2023-01-13T05:56:44.653Z,7.01
2023-01-13T05:58:16.761Z,6.97
2023-01-13T05:59:48.409Z,6.99
2023-01-13T06:01:20.102Z,6.94
2023-01-13T06:02:51.790Z,7.10
2023-01-13T06:04:23.434Z,6.99
2023-01-13T06:05:59.183Z,7.02
2023-01-13T06:07:32.132Z,7.01
2023-01-13T06:09:03.845Z,6.92
2023-01-13T06:10:35.776Z,6.91
2023-01-13T06:12:07.540Z,6.90
2023-01-13T06:13:39.146Z,6.92
2023-01-13T06:15:11.269Z,6.91
2023-01-13T06:16:42.933Z,6.99
2023-01-13T06:18:14.541Z,6.95
2023-01-13T06:19:46.212Z,6.91
2023-01-13T06:21:17.799Z,6.88
2023-01-13T06:22:51.837Z,6.90
2023-01-13T06:24:23.413Z,6.89
2023-01-13T06:25:59.703Z,6.88
2023-01-13T06:27:31.368Z,6.83
2023-01-13T06:29:02.972Z,6.86
2023-01-13T06:30:36.822Z,6.86
2023-01-13T06:32:11.576Z,6.90
2023-01-13T06:33:43.930Z,6.90
2023-01-13T06:35:16.945Z,6.90
2023-01-13T06:36:49.707Z,6.84
2023-01-13T06:38:22.911Z,6.90
2023-01-13T06:39:56.877Z,6.88
2023-01-13T06:41:47.241Z,6.89
2023-01-13T06:43:18.814Z,6.88
2023-01-13T06:44:50.611Z,6.96
2023-01-13T06:46:22.277Z,6.94
2023-01-13T06:47:54.654Z,6.93
2023-01-13T06:49:26.263Z,6.89
2023-01-13T06:50:57.839Z,6.88
2023-01-13T06:52:30.518Z,6.82
2023-01-13T06:54:03.799Z,6.84
2023-01-13T06:55:35.524Z,6.86
2023-01-13T06:57:07.116Z,6.85
2023-01-13T06:58:38.728Z,6.79
2023-01-13T07:00:11.786Z,6.85
2023-01-13T07:01:43.618Z,6.83
2023-01-13T07:03:15.940Z,6.82
2023-01-13T07:04:47.593Z,6.78
2023-01-13T07:06:19.206Z,6.74
2023-01-13T07:07:50.806Z,6.76
2023-01-13T07:09:23.755Z,6.77
2023-01-13T07:10:55.355Z,6.76
2023-01-13T07:12:26.917Z,6.75
2023-01-13T07:14:17.274Z,6.76
2023-01-13T07:15:55.951Z,6.73
2023-01-13T07:17:27.557Z,6.76
2023-01-13T07:18:59.144Z,6.75
2023-01-13T07:20:30.732Z,6.75
2023-01-13T07:22:02.333Z,6.73
2023-01-13T07:23:35.739Z,6.74
2023-01-13T07:25:10.039Z,6.72
2023-01-13T07:26:41.626Z,6.71
2023-01-13T07:28:13.185Z,6.75
2023-01-13T07:29:44.759Z,6.75
2023-01-13T07:31:17.420Z,6.78
2023-01-13T07:32:49.019Z,6.78
2023-01-13T07:34:20.675Z,6.77
2023-01-13T07:35:56.333Z,6.76
2023-01-13T07:37:27.895Z,6.77
2023-01-13T07:38:59.651Z,6.75
2023-01-13T07:40:32.599Z,6.74
2023-01-13T07:42:22.783Z,6.74
2023-01-13T07:43:54.372Z,6.74
2023-01-13T07:45:26.411Z,6.71
2023-01-13T07:46:58.039Z,6.74
2023-01-13T07:48:30.196Z,6.73
2023-01-13T07:50:01.838Z,6.76
2023-01-13T07:51:35.652Z,6.78
2023-01-13T07:53:07.211Z,6.80
2023-01-13T07:54:41.144Z,6.80
2023-01-13T07:56:14.269Z,6.81
2023-01-13T07:57:45.932Z,6.80
2023-01-13T07:59:17.501Z,6.82
2023-01-13T08:00:49.109Z,6.86
2023-01-13T08:02:21.601Z,6.83
2023-01-13T08:03:53.293Z,6.84
2023-01-13T08:05:24.932Z,6.85
2023-01-13T08:06:56.560Z,6.79
2023-01-13T08:08:28.180Z,6.90
2023-01-13T08:09:59.782Z,6.87
2023-01-13T08:11:32.741Z,6.84
2023-01-13T08:13:18.280Z,6.84
2023-01-13T08:14:50.907Z,6.82
2023-01-13T08:16:23.669Z,6.81
2023-01-13T08:17:55.471Z,6.81
2023-01-13T08:19:27.120Z,6.79
2023-01-13T08:21:01.530Z,6.77
2023-01-13T08:22:33.283Z,6.72
2023-01-13T08:24:05.323Z,6.74
2023-01-13T08:25:37.013Z,6.75
2023-01-13T08:27:10.085Z,6.79
2023-01-13T08:28:41.859Z,6.81
2023-01-13T08:30:14.219Z,6.81
2023-01-13T08:31:45.956Z,6.75
2023-01-13T08:33:17.726Z,6.76
2023-01-13T08:34:49.371Z,6.80
2023-01-13T08:36:21.050Z,6.77
2023-01-13T08:37:52.959Z,6.81
2023-01-13T08:39:25.283Z,6.83
2023-01-13T08:40:57.228Z,6.78
2023-01-13T08:42:31.039Z,6.76
2023-01-13T08:44:03.309Z,6.75
2023-01-13T08:45:36.139Z,6.82
2023-01-13T08:47:07.972Z,6.85
2023-01-13T08:48:39.866Z,6.88
2023-01-13T08:50:14.051Z,6.91
2023-01-13T08:51:48.529Z,6.84
2023-01-13T08:53:20.643Z,6.86
2023-01-13T08:54:52.585Z,6.87
2023-01-13T08:56:24.661Z,6.90
2023-01-13T08:58:14.003Z,6.93
2023-01-13T08:59:46.684Z,6.93
2023-01-13T09:01:21.579Z,6.97
2023-01-13T09:02:53.454Z,6.93
2023-01-13T09:04:26.163Z,6.90
2023-01-13T09:05:57.900Z,6.91
2023-01-13T09:07:29.795Z,6.97
2023-01-13T09:09:02.583Z,6.98
2023-01-13T09:10:35.677Z,6.96
2023-01-13T09:12:25.925Z,6.97
2023-01-13T09:13:59.050Z,6.98
2023-01-13T09:15:30.869Z,6.98
2023-01-13T09:17:03.070Z,6.99
2023-01-13T09:18:37.735Z,7.04
2023-01-13T09:20:11.097Z,7.05
2023-01-13T09:21:42.735Z,7.05
2023-01-13T09:23:14.392Z,7.06
2023-01-13T09:24:46.087Z,7.10
2023-01-13T09:26:19.869Z,7.14
2023-01-13T09:27:51.554Z,7.17
2023-01-13T09:29:24.691Z,7.24
2023-01-13T09:31:00.818Z,7.23
2023-01-13T09:32:32.905Z,7.21
2023-01-13T09:34:24.330Z,7.24
2023-01-13T09:35:59.392Z,7.25
2023-01-13T09:37:31.893Z,7.26
2023-01-13T09:39:03.735Z,7.24
2023-01-13T09:40:35.788Z,7.29
2023-01-13T09:42:32.672Z,7.34
2023-01-13T09:44:04.540Z,7.41
2023-01-13T09:45:42.141Z,7.46
2023-01-13T09:47:17.826Z,7.55
2023-01-13T09:48:52.397Z,7.63
2023-01-13T09:50:37.490Z,7.81
2023-01-13T09:52:12.225Z,7.99
2023-01-13T09:53:45.657Z,7.91
2023-01-13T09:55:18.263Z,7.84
2023-01-13T09:56:49.871Z,7.75
2023-01-13T09:58:21.588Z,7.76
2023-01-13T09:59:53.321Z,7.76
2023-01-13T10:01:28.074Z,7.74
2023-01-13T10:03:09.753Z,7.77
2023-01-13T10:04:41.512Z,7.79
2023-01-13T10:06:15.114Z,7.85
2023-01-13T10:07:49.618Z,7.95
2023-01-13T10:09:22.545Z,8.02
2023-01-13T10:10:55.682Z,7.99
2023-01-13T10:12:46.001Z,8.04
2023-01-13T10:14:18.759Z,8.04
2023-01-13T10:16:16.203Z,8.02
2023-01-13T10:17:50.806Z,8.01
2023-01-13T10:19:24.574Z,7.97
2023-01-13T10:20:59.486Z,7.94
2023-01-13T10:22:42.009Z,7.97
2023-01-13T10:24:16.475Z,7.98
2023-01-13T10:25:53.105Z,8.00
2023-01-13T10:27:26.239Z,8.02
2023-01-13T10:28:58.055Z,8.06
2023-01-13T10:30:34.675Z,8.15
2023-01-13T10:32:06.339Z,8.19
2023-01-13T10:33:39.302Z,8.24
2023-01-13T10:35:10.953Z,8.28
2023-01-13T10:36:49.137Z,8.27
2023-01-13T10:38:22.010Z,8.33
2023-01-13T10:39:55.074Z,8.29
2023-01-13T10:41:27.429Z,8.24
2023-01-13T10:43:06.337Z,8.17
2023-01-13T10:44:49.124Z,8.14
2023-01-13T10:46:20.839Z,8.06
2023-01-13T10:48:05.157Z,8.01
2023-01-13T10:49:38.764Z,7.98
2023-01-13T10:51:12.222Z,8.03
2023-01-13T10:52:56.493Z,8.02
2023-01-13T10:54:28.153Z,8.02
2023-01-13T10:56:00.574Z,8.00
2023-01-13T10:57:35.764Z,7.96
2023-01-13T10:59:18.459Z,7.89
2023-01-13T11:00:50.293Z,7.90
2023-01-13T11:02:26.934Z,7.80
2023-01-13T11:03:58.892Z,7.79
2023-01-13T11:05:31.823Z,7.78
2023-01-13T11:07:03.634Z,7.77
2023-01-13T11:08:42.122Z,7.87
2023-01-13T11:10:18.334Z,7.97
2023-01-13T11:11:55.434Z,8.07
2023-01-13T11:13:30.664Z,7.99
2023-01-13T11:15:04.445Z,7.95
2023-01-13T11:16:36.008Z,7.94
2023-01-13T11:18:13.552Z,7.92
2023-01-13T11:19:48.809Z,7.89
2023-01-13T11:21:23.047Z,7.91
2023-01-13T11:22:57.457Z,7.92
2023-01-13T11:24:35.833Z,7.91
2023-01-13T11:26:10.692Z,7.92
2023-01-13T11:27:43.643Z,7.83
2023-01-13T11:29:17.574Z,7.78
2023-01-13T11:30:51.005Z,7.78
2023-01-13T11:32:23.415Z,7.79
2023-01-13T11:33:57.222Z,7.77
2023-01-13T11:35:28.959Z,7.83
2023-01-13T11:37:03.458Z,7.95
2023-01-13T11:38:40.568Z,7.94
2023-01-13T11:40:14.047Z,7.94
2023-01-13T11:42:07.802Z,7.97
2023-01-13T11:43:42.232Z,7.97
2023-01-13T11:45:17.516Z,7.87
2023-01-13T11:46:49.693Z,7.93
2023-01-13T11:48:22.611Z,7.90
2023-01-13T11:49:54.205Z,7.90
2023-01-13T11:51:32.443Z,7.91
2023-01-13T11:53:19.975Z,8.00
2023-01-13T11:55:10.269Z,7.92
2023-01-13T11:57:04.038Z,7.94
2023-01-13T11:58:51.041Z,7.98
2023-01-13T12:00:36.300Z,8.11
2023-01-13T12:02:16.253Z,8.14
2023-01-13T12:03:48.783Z,8.16
2023-01-13T12:05:26.036Z,8.18
2023-01-13T12:07:02.229Z,8.30
2023-01-13T12:08:59.304Z,8.26
2023-01-13T12:10:41.659Z,8.26
2023-01-13T12:12:23.001Z,8.27
2023-01-13T12:14:06.606Z,8.23
2023-01-13T12:16:02.717Z,8.21
2023-01-13T12:17:37.327Z,8.19
2023-01-13T12:19:25.604Z,8.23
2023-01-13T12:21:05.712Z,8.24
2023-01-13T12:22:37.278Z,8.29
2023-01-13T12:24:14.681Z,8.21
2023-01-13T12:25:47.904Z,8.28
2023-01-13T12:27:22.256Z,8.30
2023-01-13T12:28:56.044Z,8.29
2023-01-13T12:30:29.527Z,8.21
2023-01-13T12:32:02.305Z,8.18
2023-01-13T12:33:59.001Z,8.28
2023-01-13T12:35:36.188Z,8.29
2023-01-13T12:37:11.210Z,8.23
2023-01-13T12:38:45.761Z,8.20
2023-01-13T12:40:30.599Z,8.27
2023-01-13T12:42:25.491Z,8.30
2023-01-13T12:44:16.015Z,8.27
2023-01-13T12:45:47.580Z,8.31
2023-01-13T12:47:33.014Z,8.23
2023-01-13T12:49:09.696Z,8.10
2023-01-13T12:50:42.356Z,8.04
2023-01-13T12:52:18.427Z,8.09
2023-01-13T12:53:50.118Z,8.04
2023-01-13T12:55:23.185Z,8.05
2023-01-13T12:56:54.794Z,8.05
2023-01-13T12:58:26.701Z,8.17
2023-01-13T13:00:22.172Z,8.33
2023-01-13T13:02:25.005Z,8.39
2023-01-13T13:04:07.777Z,8.38
2023-01-13T13:05:43.377Z,8.41
2023-01-13T13:07:16.645Z,8.39
2023-01-13T13:08:58.402Z,8.37
2023-01-13T13:10:32.577Z,8.38
2023-01-13T13:12:56.689Z,8.40
2023-01-13T13:15:02.236Z,8.46
2023-01-13T13:16:50.637Z,8.33
2023-01-13T13:18:27.014Z,8.19
2023-01-13T13:19:59.561Z,8.18
2023-01-13T13:21:55.513Z,8.18
2023-01-13T13:23:28.593Z,8.12
2023-01-13T13:25:22.936Z,8.07
2023-01-13T13:26:55.875Z,8.15
2023-01-13T13:28:27.525Z,8.16
2023-01-13T13:29:59.292Z,8.14
2023-01-13T13:31:36.025Z,8.09
2023-01-13T13:33:25.197Z,8.05
2023-01-13T13:35:08.210Z,8.07
2023-01-13T13:36:48.413Z,8.10
2023-01-13T13:38:44.270Z,8.14
2023-01-13T13:40:34.499Z,8.12
2023-01-13T13:42:31.230Z,8.09
2023-01-13T13:44:21.734Z,8.05
2023-01-13T13:46:12.149Z,8.05
2023-01-13T13:47:43.743Z,8.14
2023-01-13T13:49:15.757Z,8.35
2023-01-13T13:50:48.061Z,8.49
2023-01-13T13:52:21.071Z,8.48
2023-01-13T13:53:52.708Z,8.33
2023-01-13T13:55:27.421Z,8.24
2023-01-13T13:56:59.348Z,8.19
2023-01-13T13:58:34.015Z,8.38
2023-01-13T14:00:07.765Z,8.42
2023-01-13T14:01:40.822Z,8.46
2023-01-13T14:03:21.556Z,8.52
2023-01-13T14:05:06.784Z,8.56
2023-01-13T14:06:38.455Z,8.52
2023-01-13T14:08:13.002Z,8.80
2023-01-13T14:09:45.442Z,8.63
2023-01-13T14:11:25.198Z,8.70
2023-01-13T14:13:00.778Z,8.57
2023-01-13T14:14:33.825Z,8.64
2023-01-13T14:16:11.456Z,8.47
2023-01-13T14:17:46.130Z,8.46
2023-01-13T14:19:29.519Z,8.42
2023-01-13T14:21:05.803Z,8.34
2023-01-13T14:22:37.429Z,8.30
2023-01-13T14:24:14.084Z,8.29
2023-01-13T14:25:47.064Z,8.23
2023-01-13T14:27:18.737Z,8.34
2023-01-13T14:28:50.352Z,8.62
2023-01-13T14:30:23.324Z,8.62
2023-01-13T14:31:54.923Z,8.79
2023-01-13T14:33:34.030Z,8.68
2023-01-13T14:35:06.118Z,9.07
2023-01-13T14:36:37.796Z,8.73
2023-01-13T14:38:15.793Z,8.67
2023-01-13T14:39:47.502Z,8.67
2023-01-13T14:41:23.722Z,8.48
2023-01-13T14:42:58.252Z,8.66
2023-01-13T14:44:31.683Z,8.47
2023-01-13T14:46:04.896Z,8.38
2023-01-13T14:47:36.784Z,8.38
2023-01-13T14:49:16.092Z,8.23
2023-01-13T14:50:47.665Z,8.14
2023-01-13T14:52:20.682Z,8.00
2023-01-13T14:53:52.272Z,8.11
2023-01-13T14:55:27.505Z,8.01
2023-01-13T14:57:10.684Z,7.98
2023-01-13T14:58:42.305Z,8.11
2023-01-13T15:00:23.527Z,8.06
2023-01-13T15:01:56.540Z,8.03
2023-01-13T15:03:42.214Z,8.08
2023-01-13T15:05:37.600Z,7.89
2023-01-13T15:07:12.124Z,7.91
2023-01-13T15:08:43.754Z,7.91
2023-01-13T15:10:15.844Z,7.89
2023-01-13T15:11:47.469Z,7.83
2023-01-13T15:13:24.200Z,7.84
2023-01-13T15:14:57.939Z,7.83
2023-01-13T15:16:33.353Z,7.79
2023-01-13T15:18:11.830Z,7.72
2023-01-13T15:19:43.565Z,7.76
2023-01-13T15:21:15.740Z,7.69
2023-01-13T15:22:47.409Z,7.70
2023-01-13T15:24:19.026Z,7.63
2023-01-13T15:25:50.723Z,7.64
2023-01-13T15:27:24.601Z,7.63
2023-01-13T15:28:57.141Z,7.63
2023-01-13T15:30:28.821Z,7.60
2023-01-13T15:32:00.417Z,7.53
2023-01-13T15:33:33.347Z,7.44
2023-01-13T15:35:06.123Z,7.28
2023-01-13T15:36:37.901Z,6.85
2023-01-13T15:38:10.303Z,5.27
2023-01-13T15:39:41.961Z,4.10
2023-01-13T15:41:13.981Z,3.97
2023-01-13T15:43:04.069Z,4.20
2023-01-13T15:44:54.423Z,4.48
2023-01-13T15:46:38.132Z,4.61
2023-01-13T15:48:09.909Z,4.61
2023-01-13T15:49:43.244Z,4.68
2023-01-13T15:51:14.891Z,4.85
2023-01-13T15:52:46.514Z,4.66
2023-01-13T15:54:19.967Z,4.74
2023-01-13T15:55:53.669Z,5.01
2023-01-13T15:57:27.248Z,4.89
2023-01-13T15:58:58.887Z,4.83
2023-01-13T16:00:30.522Z,4.78
2023-01-13T16:02:02.161Z,4.87
2023-01-13T16:03:33.738Z,4.88
2023-01-13T16:05:07.079Z,4.92
2023-01-13T16:06:38.670Z,5.00
2023-01-13T16:08:11.972Z,4.99
2023-01-13T16:09:43.619Z,5.03
2023-01-13T16:11:15.327Z,5.01
2023-01-13T16:12:46.907Z,5.03
2023-01-13T16:14:18.537Z,5.11
2023-01-13T16:15:50.233Z,5.11
2023-01-13T16:17:23.036Z,5.08
2023-01-13T16:18:54.671Z,5.06
2023-01-13T16:20:27.710Z,5.08
2023-01-13T16:21:59.812Z,5.03
2023-01-13T16:23:31.381Z,5.03
2023-01-13T16:25:02.990Z,5.07
2023-01-13T16:26:37.287Z,5.11
2023-01-13T16:28:12.183Z,5.12
2023-01-13T16:29:44.132Z,5.14
2023-01-13T16:31:17.669Z,5.11
2023-01-13T16:32:49.293Z,5.11
2023-01-13T16:34:20.856Z,5.33
2023-01-13T16:36:10.408Z,5.24
2023-01-13T16:37:47.061Z,5.18
2023-01-13T16:39:20.755Z,5.13
2023-01-13T16:40:52.363Z,5.08
2023-01-13T16:42:24.097Z,5.12
2023-01-13T16:43:55.699Z,5.05
2023-01-13T16:45:27.444Z,5.02
2023-01-13T16:46:59.138Z,4.99
2023-01-13T16:48:30.770Z,4.96
2023-01-13T16:50:02.612Z,4.88
2023-01-13T16:51:35.752Z,4.94
2023-01-13T16:53:09.243Z,4.89
2023-01-13T16:54:40.924Z,4.99
2023-01-13T16:56:23.098Z,4.96
2023-01-13T16:57:54.980Z,5.00
2023-01-13T16:59:26.630Z,4.95
2023-01-13T17:00:58.259Z,4.91
2023-01-13T17:02:29.888Z,4.90
2023-01-13T17:04:01.503Z,4.95
2023-01-13T17:05:33.275Z,4.92
2023-01-13T17:07:06.709Z,4.97
2023-01-13T17:08:38.284Z,5.02
2023-01-13T17:10:13.126Z,4.93
2023-01-13T17:11:44.699Z,4.94
2023-01-13T17:13:17.348Z,4.87
2023-01-13T17:14:49.094Z,4.87
2023-01-13T17:16:24.411Z,4.91
2023-01-13T17:17:57.159Z,4.87
2023-01-13T17:19:28.810Z,4.92
2023-01-13T17:21:01.405Z,4.86
2023-01-13T17:22:34.348Z,4.91
2023-01-13T17:24:07.873Z,4.95
2023-01-13T17:25:39.515Z,4.98
2023-01-13T17:27:11.128Z,5.09
2023-01-13T17:28:50.672Z,4.93
2023-01-13T17:30:23.372Z,4.89
2023-01-13T17:31:55.141Z,4.95
2023-01-13T17:33:26.755Z,4.97
2023-01-13T17:35:01.514Z,4.97
2023-01-13T17:36:33.092Z,4.91
2023-01-13T17:38:06.067Z,4.92
2023-01-13T17:39:37.618Z,4.89
2023-01-13T17:41:28.975Z,4.94
2023-01-13T17:43:00.629Z,4.89
2023-01-13T17:44:34.262Z,4.94
2023-01-13T17:46:08.072Z,4.92
2023-01-13T17:47:39.822Z,4.83
2023-01-13T17:49:11.438Z,4.90
2023-01-13T17:50:48.442Z,4.92
2023-01-13T17:52:20.283Z,4.85
2023-01-13T17:53:54.167Z,4.86
2023-01-13T17:55:25.793Z,4.85
2023-01-13T17:56:57.457Z,4.94
2023-01-13T17:58:29.068Z,4.87
2023-01-13T18:00:00.712Z,4.93
2023-01-13T18:01:33.234Z,4.92
2023-01-13T18:03:04.906Z,4.88
2023-01-13T18:04:36.644Z,4.92
2023-01-13T18:06:10.543Z,4.94
2023-01-13T18:07:42.139Z,4.97
2023-01-13T18:09:15.175Z,4.86
2023-01-13T18:10:47.416Z,4.88
2023-01-13T18:12:19.296Z,4.94
2023-01-13T18:13:55.307Z,4.89
2023-01-13T18:15:26.933Z,4.89
2023-01-13T18:16:58.672Z,4.86
2023-01-13T18:18:30.365Z,4.85
2023-01-13T18:20:21.105Z,4.79
2023-01-13T18:22:11.380Z,4.80
2023-01-13T18:24:01.741Z,4.87
2023-01-13T18:25:53.529Z,4.89
2023-01-13T18:27:27.654Z,4.92
2023-01-13T18:28:59.327Z,4.96
2023-01-13T18:30:30.959Z,4.98
2023-01-13T18:32:02.625Z,5.01
2023-01-13T18:33:34.234Z,5.03
2023-01-13T18:35:10.285Z,5.02
2023-01-13T18:36:42.079Z,5.08
2023-01-13T18:38:23.579Z,5.06
2023-01-13T18:39:55.261Z,5.06
2023-01-13T18:41:47.723Z,5.15
2023-01-13T18:43:19.394Z,5.08
2023-01-13T18:44:52.511Z,5.08
2023-01-13T18:46:24.161Z,5.10
2023-01-13T18:47:56.735Z,5.14
2023-01-13T18:49:28.407Z,5.14
2023-01-13T18:51:00.086Z,5.09
2023-01-13T18:52:31.724Z,5.13
2023-01-13T18:54:03.687Z,5.14
2023-01-13T18:55:36.969Z,5.10
2023-01-13T18:57:11.292Z,5.15
2023-01-13T18:58:49.844Z,5.14
2023-01-13T19:00:22.195Z,5.17
2023-01-13T19:01:54.004Z,5.16
2023-01-13T19:03:30.116Z,5.19
2023-01-13T19:05:02.693Z,5.22
2023-01-13T19:06:34.403Z,5.22
2023-01-13T19:08:06.264Z,5.26
2023-01-13T19:09:38.084Z,5.27
2023-01-13T19:11:09.725Z,5.34
2023-01-13T19:12:43.717Z,5.32
2023-01-13T19:14:34.245Z,5.29
2023-01-13T19:16:06.343Z,5.32
2023-01-13T19:17:38.037Z,5.35
2023-01-13T19:19:09.689Z,5.34
2023-01-13T19:20:41.357Z,5.33
2023-01-13T19:22:13.820Z,5.31
2023-01-13T19:23:45.560Z,5.29
2023-01-13T19:25:17.336Z,5.29
2023-01-13T19:26:49.062Z,5.27
2023-01-13T19:28:22.075Z,5.26
2023-01-13T19:29:53.880Z,5.28
2023-01-13T19:31:25.544Z,5.28
2023-01-13T19:32:57.270Z,5.31
2023-01-13T19:34:29.003Z,5.27
2023-01-13T19:36:01.113Z,5.27
2023-01-13T19:37:34.168Z,5.22
2023-01-13T19:39:05.910Z,5.22
2023-01-13T19:40:37.501Z,5.21
2023-01-13T19:42:28.633Z,5.21
2023-01-13T19:44:20.176Z,5.18
2023-01-13T19:45:51.793Z,5.18
2023-01-13T19:47:23.427Z,5.12
2023-01-13T19:48:55.056Z,5.17
2023-01-13T19:50:26.760Z,5.18
2023-01-13T19:51:58.460Z,5.28
2023-01-13T19:53:30.156Z,5.36
2023-01-13T19:55:02.080Z,5.36
2023-01-13T19:56:33.710Z,5.37
2023-01-13T19:58:05.320Z,5.36
2023-01-13T19:59:40.926Z,5.36
2023-01-13T20:01:16.121Z,5.32
2023-01-13T20:02:49.443Z,5.34
2023-01-13T20:04:27.120Z,5.37
2023-01-13T20:06:04.617Z,5.43
2023-01-13T20:07:36.304Z,5.45
2023-01-13T20:09:07.895Z,5.40
2023-01-13T20:10:40.486Z,5.39
2023-01-13T20:12:13.604Z,5.41
2023-01-13T20:13:45.282Z,5.35
2023-01-13T20:15:18.268Z,5.34
2023-01-13T20:16:49.926Z,5.33
2023-01-13T20:18:21.486Z,5.29
2023-01-13T20:19:53.216Z,5.26
2023-01-13T20:21:24.800Z,5.20
2023-01-13T20:22:58.067Z,5.17
2023-01-13T20:24:29.710Z,5.18
2023-01-13T20:26:01.439Z,5.15
2023-01-13T20:27:33.083Z,5.16
2023-01-13T20:29:04.916Z,5.14
2023-01-13T20:30:39.195Z,5.14
2023-01-13T20:32:10.770Z,5.06
2023-01-13T20:33:42.625Z,5.05
2023-01-13T20:35:14.271Z,5.00
2023-01-13T20:36:46.257Z,5.01
2023-01-13T20:38:17.889Z,4.95
2023-01-13T20:39:49.525Z,4.91
2023-01-13T20:41:39.495Z,4.94
2023-01-13T20:43:11.113Z,4.84
2023-01-13T20:44:44.924Z,4.82
2023-01-13T20:46:17.896Z,4.85
2023-01-13T20:47:49.457Z,4.78
2023-01-13T20:49:21.312Z,4.84
2023-01-13T20:50:53.976Z,4.84
2023-01-13T20:52:25.760Z,4.78
2023-01-13T20:53:57.366Z,4.68
2023-01-13T20:55:28.976Z,4.73
2023-01-13T20:57:00.634Z,4.71
2023-01-13T20:58:32.219Z,4.70
2023-01-13T21:00:04.616Z,4.69
2023-01-13T21:01:38.057Z,4.65
2023-01-13T21:03:09.634Z,4.64